Time;durP1;ratioP1;P1;durP2;ratioP2;P2;SDS_P1;SDS_P2;PMS_P1;PMS_P2;Temp;Humidity;BMP_temperature;BMP_pressure;BME280_temperature;BME280_humidity;BME280_pressure;Samples;Min_cycle;Max_cycle;Signal;HPM_P1;HPM_P2
2021/07/06 00:01:39;;;;;;;15.63;10.25;;;;;;;16.07;82.93;97837.77;1732522;82;20972;-82
2021/07/06 00:04:05;;;;;;;15.55;10.40;;;;;;;16.07;82.79;97835.04;1732790;82;21097;-83
2021/07/06 00:06:31;;;;;;;13.03;10.15;;;;;;;16.06;82.51;97834.77;1732338;82;20940;-77
2021/07/06 00:08:57;;;;;;;12.65;9.93;;;;;;;16.01;82.55;97841.21;1697587;84;20899;-82
2021/07/06 00:11:23;;;;;;;12.58;9.68;;;;;;;15.98;83.07;97843.23;1697197;84;21547;-77
2021/07/06 00:13:49;;;;;;;12.55;9.55;;;;;;;15.97;81.15;97847.05;1697386;83;20847;-82
2021/07/06 00:16:15;;;;;;;14.03;9.50;;;;;;;15.89;83.05;97845.67;1732645;82;21001;-77
2021/07/06 00:18:41;;;;;;;12.58;10.15;;;;;;;15.86;82.26;97842.22;1697461;84;20847;-83
2021/07/06 00:21:09;;;;;;;12.82;9.30;;;;;;;15.82;83.20;97850.83;1697171;84;20946;-77
2021/07/06 00:23:35;;;;;;;12.90;10.43;;;;;;;15.77;83.51;97846.30;1712047;82;21060;-83
2021/07/06 00:26:01;;;;;;;15.75;9.93;;;;;;;15.75;82.87;97851.28;1732981;82;21547;-77
2021/07/06 00:28:27;;;;;;;11.33;9.23;;;;;;;15.73;83.21;97849.44;1697106;84;21333;-77
2021/07/06 00:30:53;;;;;;;11.70;9.10;;;;;;;15.70;82.40;97849.48;1733125;81;20885;-77
2021/07/06 00:33:19;;;;;;;12.78;9.38;;;;;;;15.70;82.25;97852.78;1739406;82;20885;-77
2021/07/06 00:35:45;;;;;;;14.98;9.38;;;;;;;15.67;81.83;97851.50;1738390;82;20881;-77
2021/07/06 00:38:12;;;;;;;11.10;9.25;;;;;;;15.63;82.99;97853.80;1707611;83;21056;-77
2021/07/06 00:40:38;;;;;;;13.15;9.10;;;;;;;15.63;82.28;97851.87;1705216;83;21476;-77
2021/07/06 00:43:04;;;;;;;13.68;9.95;;;;;;;15.60;82.30;97848.39;1701266;84;20985;-83
2021/07/06 00:45:30;;;;;;;10.75;9.63;;;;;;;15.57;82.40;97852.32;1701462;83;20878;-77
2021/07/06 00:48:00;;;;;;;14.15;9.78;;;;;;;15.53;81.93;97852.94;1739157;82;20842;-83
2021/07/06 00:50:24;;;;;;;10.75;9.10;;;;;;;15.48;82.95;97858.55;1703568;83;20962;-78
2021/07/06 00:52:51;;;;;;;13.55;9.08;;;;;;;15.46;83.43;97859.41;1680444;85;40002;-84
2021/07/06 00:55:17;;;;;;;15.95;9.30;;;;;;;15.46;83.13;97863.50;1703508;84;21053;-78
2021/07/06 00:57:43;;;;;;;11.73;9.10;;;;;;;15.44;82.93;97863.58;1680963;85;21029;-78
2021/07/06 01:00:17;;;;;;;10.80;9.33;;;;;;;15.41;81.92;97860.13;1703843;83;21411;-82
2021/07/06 01:02:43;;;;;;;12.47;9.85;;;;;;;15.33;82.56;97859.52;1711658;82;21033;-77
2021/07/06 01:05:13;;;;;;;14.65;10.03;;;;;;;15.29;83.04;97862.62;1703934;83;21316;-78
2021/07/06 01:07:39;;;;;;;11.88;9.90;;;;;;;15.28;83.39;97865.11;1685762;85;20967;-83
2021/07/06 01:10:06;;;;;;;12.78;10.35;;;;;;;15.28;83.17;97859.09;1704098;83;20881;-83
2021/07/06 01:12:33;;;;;;;14.23;9.60;;;;;;;15.28;82.82;97868.64;1680489;85;20985;-83
2021/07/06 01:15:06;;;;;;;17.65;11.38;;;;;;;15.22;82.72;97875.37;1703983;83;20988;-78
2021/07/06 01:17:32;;;;;;;12.13;9.80;;;;;;;15.15;83.30;97876.38;1685189;84;21425;-78
2021/07/06 01:19:59;;;;;;;14.38;10.55;;;;;;;15.07;83.16;97875.20;1703915;84;20842;-78
2021/07/06 01:22:30;;;;;;;13.18;10.03;;;;;;;15.00;83.55;97868.58;1680556;85;21405;-81
2021/07/06 01:24:57;;;;;;;12.25;8.93;;;;;;;14.97;83.81;97870.58;1700686;84;20978;-68
2021/07/06 01:27:23;;;;;;;15.08;9.60;;;;;;;14.98;84.35;97869.45;1680627;85;21025;-63
2021/07/06 01:29:49;;;;;;;13.03;8.98;;;;;;;15.00;83.79;97868.58;1704184;84;21674;-64
2021/07/06 01:32:14;;;;;;;13.45;9.60;;;;;;;14.97;84.35;97874.11;1685546;85;20869;-67
2021/07/06 01:34:40;;;;;;;11.15;9.20;;;;;;;14.98;83.80;97881.17;1704055;83;21567;-64
2021/07/06 01:37:06;;;;;;;11.70;8.15;;;;;;;14.98;82.87;97880.37;1687674;83;20851;-62
2021/07/06 01:39:32;;;;;;;13.18;9.25;;;;;;;14.91;83.37;97876.15;1702170;83;20878;-63
2021/07/06 01:41:58;;;;;;;11.97;9.30;;;;;;;14.96;83.74;97879.32;1755270;80;22355;-66
2021/07/06 01:44:26;;;;;;;9.65;8.65;;;;;;;15.00;83.39;97880.85;1739599;81;20817;-66
2021/07/06 01:46:53;;;;;;;12.95;9.70;;;;;;;14.98;83.43;97879.00;1761408;81;20993;-65
2021/07/06 01:49:19;;;;;;;12.03;8.73;;;;;;;14.90;82.36;97875.91;1770431;80;20949;-66
2021/07/06 01:52:01;;;;;;;12.53;9.65;;;;;;;14.85;83.28;97879.30;1769964;80;20945;-66
2021/07/06 01:54:44;;;;;;;10.78;8.03;;;;;;;14.82;83.72;97884.03;1760044;80;21805;-65
2021/07/06 01:57:28;;;;;;;11.95;8.88;;;;;;;14.81;83.18;97891.41;1738966;82;20960;-65
2021/07/06 02:00:10;;;;;;;10.90;8.75;;;;;;;14.77;83.78;97887.67;1739101;82;20948;-67
2021/07/06 03:00:55;;;;;;;17.50;9.95;;;;;;;14.28;84.40;97891.27;1737811;81;20940;-63
2021/07/06 03:03:22;;;;;;;10.78;8.75;;;;;;;14.35;84.21;97895.16;1737226;82;21468;-64
2021/07/06 03:05:48;;;;;;;15.70;8.98;;;;;;;14.35;84.37;97892.43;1737561;82;21503;-66
2021/07/06 03:08:13;;;;;;;11.53;8.43;;;;;;;14.32;84.27;97895.78;1733336;82;20856;-67
2021/07/06 03:10:40;;;;;;;13.35;9.65;;;;;;;14.25;85.28;97896.75;1737515;82;20935;-62
2021/07/06 03:13:07;;;;;;;13.10;8.75;;;;;;;14.28;84.24;97895.36;1737406;82;20936;-64
2021/07/06 03:15:33;;;;;;;11.28;8.83;;;;;;;14.24;84.59;97901.16;1764499;81;21478;-72
2021/07/06 03:18:02;;;;;;;11.15;8.05;;;;;;;14.22;84.30;97896.02;1765536;80;21245;-69
2021/07/06 03:20:28;;;;;;;13.32;8.95;;;;;;;14.22;83.99;97891.92;1765765;80;20983;-70
2021/07/06 03:22:54;;;;;;;11.95;8.18;;;;;;;14.16;84.87;97892.33;1763764;80;21419;-73
2021/07/06 03:25:22;;;;;;;10.20;7.85;;;;;;;14.14;83.78;97891.28;1764328;80;20975;-64
2021/07/06 03:27:48;;;;;;;14.20;9.03;;;;;;;14.10;83.26;97888.38;1696961;84;21054;-66
2021/07/06 03:30:24;;;;;;;11.70;8.80;;;;;;;14.13;84.23;97891.59;1708885;84;21681;-67
2021/07/06 03:32:52;;;;;;;11.22;9.18;;;;;;;14.24;84.18;97882.08;1764923;81;21059;-71
2021/07/06 03:35:19;;;;;;;17.23;8.65;;;;;;;14.35;84.32;97892.98;1739499;81;27975;-70
2021/07/06 03:37:45;;;;;;;14.33;8.85;;;;;;;14.45;83.76;97898.80;1760927;81;20940;-71
2021/07/06 03:40:12;;;;;;;10.23;7.65;;;;;;;14.49;83.44;97894.36;1761535;81;20969;-71
2021/07/06 03:42:38;;;;;;;9.90;7.72;;;;;;;14.58;83.08;97902.85;1761150;81;21782;-71
2021/07/06 03:45:05;;;;;;;17.45;9.43;;;;;;;14.69;83.04;97900.69;1761601;81;20859;-72
2021/07/06 03:47:31;;;;;;;11.25;8.65;;;;;;;14.77;82.83;97909.48;1767560;81;20973;-71
2021/07/06 03:49:57;;;;;;;10.93;8.80;;;;;;;14.81;82.66;97912.42;1767730;81;20906;-71
2021/07/06 03:52:23;;;;;;;15.88;10.32;;;;;;;14.86;82.31;97910.36;1767711;81;20920;-72
2021/07/06 03:54:50;;;;;;;13.60;10.20;;;;;;;14.93;82.38;97905.28;1750265;81;21038;-72
2021/07/06 03:57:28;;;;;;;13.62;9.75;;;;;;;15.04;81.70;97908.58;1766679;80;20934;-72
2021/07/06 03:59:44;;;;;;;13.90;9.47;;;;;;;15.18;81.63;97900.30;1760045;81;20979;-72
2021/07/06 04:02:10;;;;;;;12.90;9.23;;;;;;;15.36;81.29;97899.27;1762163;80;20902;-71
2021/07/06 04:04:35;;;;;;;14.78;10.55;;;;;;;15.39;81.25;97891.04;1762770;81;21046;-72
2021/07/06 04:07:01;;;;;;;13.15;9.58;;;;;;;15.43;81.37;97898.83;1763434;81;21145;-72
2021/07/06 04:09:27;;;;;;;11.88;9.73;;;;;;;15.52;81.44;97892.85;1763253;81;20898;-72
2021/07/06 04:11:53;;;;;;;10.43;8.65;;;;;;;15.60;81.53;97889.91;1697315;84;20886;-72
2021/07/06 04:14:19;;;;;;;12.43;8.40;;;;;;;15.68;81.64;97889.17;1697706;84;21564;-72
2021/07/06 04:16:45;;;;;;;14.28;8.38;;;;;;;15.79;81.39;97891.29;1763476;81;20935;-72
2021/07/06 04:19:11;;;;;;;14.35;9.08;;;;;;;15.88;81.37;97894.61;1697994;84;21306;-72
2021/07/06 04:21:37;;;;;;;18.73;10.55;;;;;;;15.94;80.83;97894.72;1763467;81;20874;-72
2021/07/06 04:24:03;;;;;;;12.53;9.13;;;;;;;16.07;80.61;97902.00;1763603;81;20879;-73
2021/07/06 04:26:29;;;;;;;12.05;8.78;;;;;;;16.21;80.40;97905.38;1763502;81;21089;-72
2021/07/06 04:28:55;;;;;;;12.90;7.95;;;;;;;16.26;80.45;97909.91;1696541;84;21632;-72
2021/07/06 04:31:21;;;;;;;15.15;9.23;;;;;;;16.42;80.00;97898.76;1697624;84;21081;-72
2021/07/06 04:33:47;;;;;;;13.25;8.55;;;;;;;16.61;79.80;97901.17;1696908;83;20914;-73
2021/07/06 04:36:13;;;;;;;10.08;8.55;;;;;;;16.75;79.43;97905.96;1697631;83;20863;-72
2021/07/06 04:38:39;;;;;;;13.00;9.33;;;;;;;16.89;79.10;97895.63;1697752;84;20929;-72
2021/07/06 04:41:04;;;;;;;35.50;14.07;;;;;;;17.04;78.15;97900.37;1697868;83;20981;-71
2021/07/06 04:43:30;;;;;;;13.78;10.05;;;;;;;17.06;78.47;97905.75;1697533;84;21999;-72
2021/07/06 04:45:56;;;;;;;13.05;9.65;;;;;;;17.23;77.96;97897.27;1697122;84;20914;-72
2021/07/06 04:48:22;;;;;;;12.07;8.78;;;;;;;17.36;77.59;97900.39;1697412;84;20899;-71
2021/07/06 04:50:48;;;;;;;10.68;8.60;;;;;;;17.44;77.43;97901.73;1763052;81;20985;-71
2021/07/06 04:53:15;;;;;;;12.68;7.90;;;;;;;17.61;76.91;97901.44;1763484;81;20895;-72
2021/07/06 04:55:41;;;;;;;12.15;8.88;;;;;;;17.74;76.41;97906.71;1763422;81;22055;-71
2021/07/06 04:58:07;;;;;;;14.35;9.23;;;;;;;17.74;76.51;97911.39;1763258;81;20819;-73
2021/07/06 05:00:33;;;;;;;17.15;10.32;;;;;;;17.82;76.32;97905.06;1697465;84;20925;-72
2021/07/06 05:03:00;;;;;;;13.28;9.73;;;;;;;18.03;75.85;97911.97;1753601;81;20859;-72
2021/07/06 05:05:26;;;;;;;15.32;9.50;;;;;;;18.14;75.10;97911.84;1753710;81;20995;-72
2021/07/06 05:07:55;;;;;;;12.23;9.53;;;;;;;18.26;73.98;97905.63;1683338;84;22039;-72
2021/07/06 05:10:21;;;;;;;14.00;9.48;;;;;;;18.28;74.05;97898.67;1753655;81;21427;-72
2021/07/06 05:12:46;;;;;;;11.20;8.15;;;;;;;18.37;74.78;97900.55;1753705;81;20947;-73
2021/07/06 05:15:12;;;;;;;11.80;8.10;;;;;;;18.59;73.91;97907.09;1683076;84;20985;-71
2021/07/06 05:17:38;;;;;;;13.70;8.90;;;;;;;18.77;74.09;97899.55;1753261;81;21664;-72
2021/07/06 05:20:06;;;;;;;14.87;10.28;;;;;;;18.96;73.58;97907.30;1753726;81;21298;-72
2021/07/06 05:22:32;;;;;;;12.93;9.55;;;;;;;19.15;72.69;97904.30;1753625;81;21446;-72
2021/07/06 05:24:58;;;;;;;13.45;9.65;;;;;;;19.36;72.60;97907.55;1683616;85;20929;-73
2021/07/06 05:27:24;;;;;;;12.85;9.83;;;;;;;19.47;70.52;97905.97;1711302;83;20895;-72
2021/07/06 05:29:50;;;;;;;10.65;9.33;;;;;;;19.41;70.74;97905.97;1753773;81;20891;-73
2021/07/06 05:32:19;;;;;;;13.60;9.53;;;;;;;19.45;70.36;97900.02;1682875;84;21310;-73
2021/07/06 05:34:45;;;;;;;15.63;7.90;;;;;;;19.48;70.40;97897.15;1753607;81;21428;-73
2021/07/06 05:37:11;;;;;;;9.68;8.35;;;;;;;19.62;69.93;97897.67;1753618;81;20883;-74
2021/07/06 05:39:37;;;;;;;9.25;6.92;;;;;;;19.68;69.95;97901.23;1753718;81;20915;-72
2021/07/06 05:42:04;;;;;;;11.05;8.63;;;;;;;19.85;69.10;97903.55;1754027;81;20943;-73
2021/07/06 05:44:31;;;;;;;10.48;8.75;;;;;;;19.89;68.51;97901.70;1753898;81;21141;-73
2021/07/06 05:46:57;;;;;;;9.10;8.15;;;;;;;19.87;68.52;97905.37;1753416;81;20907;-73
2021/07/06 05:49:23;;;;;;;10.20;8.33;;;;;;;19.89;68.51;97901.70;1753633;81;20867;-72
2021/07/06 05:51:50;;;;;;;9.43;8.43;;;;;;;19.94;69.17;97903.66;1753582;81;20946;-73
2021/07/06 05:54:16;;;;;;;10.95;7.97;;;;;;;20.20;69.66;97899.17;1753860;81;20908;-73
2021/07/06 05:56:42;;;;;;;9.85;7.10;;;;;;;20.49;68.78;97906.37;1753532;81;21403;-73
2021/07/06 05:59:08;;;;;;;7.70;6.85;;;;;;;20.62;68.47;97900.85;1683734;84;20855;-73
2021/07/06 06:01:34;;;;;;;9.95;7.28;;;;;;;20.77;67.44;97910.56;1712492;82;21048;-72
2021/07/06 06:04:01;;;;;;;8.95;7.67;;;;;;;20.84;67.31;97903.86;1753548;81;20931;-73
2021/07/06 06:06:27;;;;;;;9.88;8.10;;;;;;;21.01;66.81;97904.14;1753553;81;20938;-73
2021/07/06 06:08:53;;;;;;;8.93;7.33;;;;;;;21.13;67.01;97913.75;1753629;81;21282;-73
2021/07/06 06:11:19;;;;;;;8.95;8.05;;;;;;;21.33;66.45;97916.08;1753700;81;21573;-72
2021/07/06 06:13:45;;;;;;;9.13;7.40;;;;;;;21.48;65.71;97921.98;1753450;81;20938;-73
2021/07/06 06:16:11;;;;;;;10.08;7.08;;;;;;;21.73;65.56;97917.12;1753992;81;20990;-73
2021/07/06 06:18:37;;;;;;;9.08;7.20;;;;;;;21.93;65.22;97915.45;1682792;85;20900;-73
2021/07/06 06:21:03;;;;;;;9.98;7.85;;;;;;;22.07;64.70;97915.05;1711089;83;21208;-73
2021/07/06 06:23:29;;;;;;;8.80;7.12;;;;;;;22.21;64.10;97913.98;1683385;84;20938;-73
2021/07/06 06:25:55;;;;;;;9.70;7.90;;;;;;;22.38;63.57;97918.89;1712836;83;20929;-73
2021/07/06 06:28:22;;;;;;;12.63;7.83;;;;;;;22.58;64.08;97919.17;1699632;84;21415;-73
2021/07/06 06:30:47;;;;;;;10.68;7.22;;;;;;;22.76;63.48;97920.36;1700207;84;20911;-73
2021/07/06 06:33:14;;;;;;;10.32;8.53;;;;;;;22.87;61.68;97926.13;1699885;84;21234;-73
2021/07/06 06:35:41;;;;;;;7.70;6.35;;;;;;;23.04;62.62;97922.94;1699988;84;20982;-73
2021/07/06 06:38:07;;;;;;;11.93;7.72;;;;;;;23.21;62.29;97920.89;1753630;81;21003;-73
2021/07/06 06:40:33;;;;;;;9.63;6.80;;;;;;;23.41;62.01;97914.75;1754098;81;21058;-73
2021/07/06 06:42:59;;;;;;;8.20;7.03;;;;;;;23.59;61.53;97911.75;1682218;84;20933;-73
2021/07/06 06:45:30;;;;;;;7.55;6.17;;;;;;;23.67;60.21;97912.67;1712426;83;21985;-73
2021/07/06 06:47:53;;;;;;;9.50;7.47;;;;;;;23.84;59.43;97913.02;1682971;84;21418;-73
2021/07/06 06:50:19;;;;;;;13.40;7.92;;;;;;;23.65;58.72;97910.28;1753869;81;20959;-73
2021/07/06 06:52:44;;;;;;;7.12;6.35;;;;;;;23.73;59.04;97907.06;1683176;84;20863;-73
2021/07/06 06:55:11;;;;;;;9.63;6.50;;;;;;;23.84;59.71;97911.63;1700152;84;21588;-73
2021/07/06 06:57:37;;;;;;;7.83;6.28;;;;;;;24.10;59.19;97901.77;1699852;83;21166;-73
2021/07/06 07:00:05;;;;;;;6.12;5.53;;;;;;;24.24;58.35;97904.73;1684106;84;20929;-74
2021/07/06 07:02:32;;;;;;;;;;;;;;;24.45;57.92;97901.53;1690896;83;21465;-73
2021/07/06 07:04:58;;;;;;;6.72;5.83;;;;;;;24.55;57.41;97900.88;1722494;82;20419;-73
2021/07/06 07:07:24;;;;;;;10.90;5.72;;;;;;;24.59;56.97;97902.30;1763141;81;21466;-73
2021/07/06 07:09:50;;;;;;;6.95;5.87;;;;;;;24.62;56.39;97905.13;1697831;84;21226;-74
2021/07/06 07:12:17;;;;;;;8.18;5.72;;;;;;;24.66;56.29;97896.27;1762967;81;21485;-73
2021/07/06 07:14:43;;;;;;;7.05;4.97;;;;;;;24.78;56.73;97899.97;1763715;81;20983;-73
2021/07/06 07:17:09;;;;;;;5.75;4.80;;;;;;;24.94;56.23;97902.75;1763455;81;20840;-73
2021/07/06 07:19:35;;;;;;;5.87;4.85;;;;;;;25.21;56.51;97906.30;1763186;81;20827;-73
2021/07/06 07:22:03;;;;;;;7.47;5.47;;;;;;;25.44;55.17;97897.02;1761229;81;21307;-73
2021/07/06 07:24:29;;;;;;;9.83;4.63;;;;;;;25.80;54.31;97899.56;1763738;81;21352;-73
2021/07/06 07:26:55;;;;;;;6.22;5.10;;;;;;;25.90;54.05;97896.09;1763465;81;20926;-73
2021/07/06 07:29:21;;;;;;;7.70;5.22;;;;;;;25.91;52.57;97896.30;1763390;81;21021;-73
2021/07/06 07:31:47;;;;;;;6.20;4.95;;;;;;;26.06;52.48;97889.69;1763246;81;20892;-73
2021/07/06 07:34:13;;;;;;;6.33;5.45;;;;;;;26.23;53.08;97891.56;1697823;84;21150;-73
2021/07/06 07:36:41;;;;;;;7.55;5.22;;;;;;;26.39;52.48;97892.90;1697752;84;20903;-73
2021/07/06 07:39:08;;;;;;;7.90;5.55;;;;;;;26.51;51.71;97886.24;1698003;84;20943;-73
2021/07/06 07:41:34;;;;;;;5.15;4.55;;;;;;;26.89;50.82;97886.81;1697730;84;21430;-73
2021/07/06 07:44:00;;;;;;;9.63;5.78;;;;;;;26.95;49.03;97886.65;1763195;81;20971;-73
2021/07/06 07:46:26;;;;;;;5.90;4.60;;;;;;;27.29;47.51;97888.58;1762948;81;21320;-73
2021/07/06 07:48:52;;;;;;;6.15;5.17;;;;;;;27.68;47.99;97885.09;1763245;81;20970;-73
2021/07/06 07:51:19;;;;;;;5.20;4.70;;;;;;;28.10;47.27;97891.27;1763193;81;20906;-73
2021/07/06 07:53:45;;;;;;;6.72;4.83;;;;;;;28.34;45.33;97879.33;1677937;84;21021;-73
2021/07/06 07:56:12;;;;;;;6.00;4.97;;;;;;;28.03;45.96;97887.09;1763300;81;20902;-74
2021/07/06 07:58:38;;;;;;;5.53;5.03;;;;;;;28.02;45.96;97884.11;1763373;81;21223;-73
2021/07/06 08:01:04;;;;;;;8.00;5.33;;;;;;;27.88;46.46;97876.56;1763512;81;21117;-73
2021/07/06 08:03:30;;;;;;;7.83;4.50;;;;;;;28.36;44.74;97881.11;1761559;81;20904;-73
2021/07/06 08:05:58;;;;;;;7.10;6.40;;;;;;;28.64;45.10;97883.66;1695627;84;20863;-73
2021/07/06 08:08:24;;;;;;;6.15;4.58;;;;;;;29.06;44.67;97879.94;1760404;80;20958;-74
2021/07/06 08:10:53;;;;;;;5.33;4.62;;;;;;;29.47;42.64;97880.09;1761252;81;21339;-75
2021/07/06 08:13:21;;;;;;;5.20;4.60;;;;;;;29.98;43.42;97873.56;1695505;83;20915;-73
2021/07/06 08:15:47;;;;;;;;;;;;;;;30.15;41.75;97876.04;1763440;81;20963;-73
2021/07/06 08:18:13;;;;;;;8.28;4.78;;;;;;;30.40;39.62;97873.00;1761036;81;20140;-73
2021/07/06 08:20:39;;;;;;;6.58;4.15;;;;;;;30.73;38.82;97874.28;1760648;81;20876;-73
2021/07/06 08:23:05;;;;;;;5.92;4.22;;;;;;;31.31;40.05;97873.77;1760841;81;21431;-74
2021/07/06 08:25:31;;;;;;;5.05;4.40;;;;;;;31.59;39.70;97876.75;1695814;84;20859;-73
2021/07/06 08:27:57;;;;;;;6.50;4.17;;;;;;;31.99;38.58;97871.55;1760335;81;20875;-73
2021/07/06 08:30:23;;;;;;;4.97;4.12;;;;;;;31.77;38.79;97874.50;1761405;81;21556;-74
2021/07/06 08:32:49;;;;;;;6.55;4.58;;;;;;;32.19;38.28;97881.40;1760768;81;20944;-74
2021/07/06 08:35:15;;;;;;;5.47;3.65;;;;;;;32.65;36.29;97879.02;1695920;84;21184;-73
2021/07/06 08:37:41;;;;;;;7.37;4.03;;;;;;;32.54;36.04;97871.57;1695472;84;20898;-74
2021/07/06 08:40:08;;;;;;;8.38;3.80;;;;;;;33.18;34.04;97878.55;1760528;81;20930;-74
2021/07/06 08:42:37;;;;;;;6.17;4.83;;;;;;;33.15;34.66;97870.38;1761039;81;21034;-73
2021/07/06 08:45:05;;;;;;;10.82;4.50;;;;;;;33.19;34.97;97871.09;1760826;81;21021;-74
2021/07/06 08:47:31;;;;;;;5.72;3.87;;;;;;;33.40;33.74;97865.64;1760014;81;21268;-74
2021/07/06 08:49:56;;;;;;;4.58;4.15;;;;;;;32.49;32.76;97869.28;1761812;81;20879;-74
2021/07/06 08:52:22;;;;;;;5.72;5.12;;;;;;;32.54;33.03;97865.17;1760960;80;20993;-74
2021/07/06 08:54:49;;;;;;;6.60;4.15;;;;;;;32.81;32.47;97868.63;1760883;81;20871;-75
2021/07/06 08:57:21;;;;;;;5.78;3.85;;;;;;;33.21;34.12;97867.23;1759651;81;20967;-74
2021/07/06 08:59:44;;;;;;;6.08;3.67;;;;;;;33.53;32.79;97870.77;1760591;81;21308;-75
2021/07/06 09:02:11;;;;;;;4.60;4.08;;;;;;;33.49;33.48;97862.23;1760660;81;20947;-75
2021/07/06 09:04:52;;;;;;;3.85;3.37;;;;;;;34.70;31.85;97860.00;1697300;84;21034;-74
2021/07/06 09:07:19;;;;;;;4.33;3.92;;;;;;;34.92;31.10;97858.00;1697730;84;21328;-73
2021/07/06 09:09:46;;;;;;;7.53;4.53;;;;;;;34.66;31.08;97857.09;1697440;84;20959;-74
2021/07/06 09:12:14;;;;;;;7.75;3.83;;;;;;;35.48;30.74;97850.52;1698030;84;21968;-73
2021/07/06 09:14:46;;;;;;;4.33;3.60;;;;;;;35.81;30.56;97862.33;1697830;84;20958;-75
2021/07/06 09:17:23;;;;;;;5.78;3.95;;;;;;;36.38;29.52;97859.03;1697849;84;20987;-74
2021/07/06 09:19:51;;;;;;;4.53;4.05;;;;;;;36.51;27.61;97860.41;1697806;84;20923;-75
2021/07/06 09:22:26;;;;;;;4.87;3.90;;;;;;;36.91;25.73;97854.91;1697647;84;20970;-74
2021/07/06 09:25:07;;;;;;;4.53;4.03;;;;;;;36.33;27.27;97855.36;1697784;84;21045;-74
2021/07/06 09:27:36;;;;;;;5.50;4.00;;;;;;;36.96;28.30;97853.70;1697749;84;20955;-74
2021/07/06 09:30:19;;;;;;;3.70;3.40;;;;;;;37.00;27.90;97854.97;1697918;84;21065;-75
2021/07/06 09:32:56;;;;;;;4.33;3.90;;;;;;;37.05;28.00;97849.36;1697881;84;21037;-74
2021/07/06 09:35:25;;;;;;;5.92;3.92;;;;;;;37.39;25.77;97849.89;1698004;84;20994;-74
2021/07/06 09:37:59;;;;;;;7.70;3.85;;;;;;;35.22;28.15;97852.49;1697603;84;21810;-74
2021/07/06 09:40:32;;;;;;;6.22;4.45;;;;;;;33.45;30.59;97861.53;1697873;84;20963;-74
2021/07/06 09:43:20;;;;;;;4.05;3.62;;;;;;;31.90;32.48;97862.89;1697854;84;21299;-72
2021/07/06 09:45:58;;;;;;;5.10;4.30;;;;;;;30.96;33.85;97864.61;1697901;84;20923;-75
2021/07/06 09:48:24;;;;;;;;;;;;;;;30.72;34.47;97858.71;1697621;84;21030;-73
2021/07/06 09:50:50;;;;;;;4.10;3.70;;;;;;;30.78;35.54;97864.04;1698291;83;21072;-74
2021/07/06 09:53:32;;;;;;;5.22;4.72;;;;;;;30.67;34.91;97859.95;1763481;81;21344;-74
2021/07/06 09:55:58;;;;;;;6.25;4.80;;;;;;;30.70;35.13;97856.95;1763545;81;21340;-74
2021/07/06 09:58:24;;;;;;;5.35;4.58;;;;;;;30.43;35.65;97861.02;1763452;81;20851;-73
2021/07/06 10:00:51;;;;;;;9.15;4.40;;;;;;;30.38;36.22;97861.45;1763696;81;20815;-74
2021/07/06 10:03:18;;;;;;;5.58;4.55;;;;;;;30.21;36.97;97859.03;1763681;81;21157;-75
2021/07/06 10:05:45;;;;;;;5.05;4.25;;;;;;;29.87;38.40;97856.11;1762837;81;21391;-74
2021/07/06 10:08:12;;;;;;;6.37;4.12;;;;;;;29.41;39.35;97860.02;1763577;81;21225;-74
2021/07/06 10:10:38;;;;;;;5.05;4.55;;;;;;;29.61;39.25;97858.30;1763640;81;20963;-74
2021/07/06 10:13:04;;;;;;;6.65;4.25;;;;;;;29.97;38.64;97854.62;1763511;81;20828;-73
2021/07/06 10:15:31;;;;;;;7.25;4.50;;;;;;;30.68;37.96;97848.16;1767479;81;21195;-73
2021/07/06 10:17:58;;;;;;;6.10;4.93;;;;;;;30.72;37.30;97854.52;1763715;81;20911;-74
2021/07/06 10:20:27;;;;;;;6.47;4.90;;;;;;;30.80;37.12;97846.23;1698123;84;21467;-75
2021/07/06 10:22:59;;;;;;;4.50;3.90;;;;;;;31.96;35.53;97842.98;1697848;84;21459;-75
2021/07/06 10:25:29;;;;;;;6.22;4.78;;;;;;;33.48;32.58;97845.20;1698149;84;20986;-74
2021/07/06 10:28:04;;;;;;;5.33;4.03;;;;;;;35.15;31.15;97832.38;1697702;84;22039;-74
2021/07/06 10:30:33;;;;;;;6.08;4.78;;;;;;;36.04;27.63;97838.00;1697585;84;20971;-75
2021/07/06 10:33:00;;;;;;;4.67;3.67;;;;;;;37.35;27.64;97834.50;1697272;84;20971;-73
2021/07/06 10:35:43;;;;;;;5.12;4.20;;;;;;;38.55;26.45;97838.42;1697755;84;21392;-74
2021/07/06 10:38:32;;;;;;;8.43;5.33;;;;;;;38.38;24.65;97835.13;1697886;84;21359;-74
2021/07/06 10:41:22;;;;;;;5.10;4.05;;;;;;;38.81;24.78;97827.58;1697519;84;21067;-74
2021/07/06 10:43:52;;;;;;;4.35;3.72;;;;;;;40.07;23.78;97831.05;1697748;84;21018;-73
2021/07/06 10:46:32;;;;;;;4.62;3.67;;;;;;;38.97;23.85;97824.41;1697788;84;20923;-75
2021/07/06 10:49:15;;;;;;;4.87;3.58;;;;;;;39.58;22.12;97824.40;1698051;84;20927;-75
2021/07/06 10:51:45;;;;;;;4.08;3.50;;;;;;;40.03;22.90;97826.20;1698602;83;21018;-75
2021/07/06 10:54:25;;;;;;;3.85;3.35;;;;;;;40.42;22.40;97818.48;1698175;84;21915;-75
2021/07/06 10:56:55;;;;;;;4.35;3.95;;;;;;;40.00;22.27;97820.87;1697726;84;20986;-74
2021/07/06 10:59:35;;;;;;;3.40;3.10;;;;;;;40.08;21.24;97811.98;1696758;84;20935;-74
2021/07/06 11:02:22;;;;;;;3.45;3.15;;;;;;;40.97;20.91;97813.77;1698098;84;20943;-75
2021/07/06 11:04:52;;;;;;;4.33;3.37;;;;;;;40.55;20.61;97811.16;1697796;84;20914;-74
2021/07/06 11:07:38;;;;;;;4.35;3.40;;;;;;;40.71;20.32;97803.60;1763653;81;21322;-76
2021/07/06 11:10:06;;;;;;;3.40;3.10;;;;;;;40.45;20.85;97807.63;1763606;81;21006;-74
2021/07/06 11:12:43;;;;;;;4.87;4.00;;;;;;;40.03;21.51;97811.39;1763416;81;21438;-75
2021/07/06 11:15:26;;;;;;;4.33;3.58;;;;;;;39.68;21.95;97805.44;1763490;81;21325;-74
2021/07/06 11:18:05;;;;;;;4.08;3.72;;;;;;;39.61;21.60;97803.59;1762950;81;20924;-75
2021/07/06 11:20:40;;;;;;;6.40;3.60;;;;;;;40.46;21.70;97806.36;1763249;81;21983;-74
2021/07/06 11:23:21;;;;;;;4.00;3.35;;;;;;;41.21;21.24;97807.98;1763360;81;20895;-75
2021/07/06 11:25:47;;;;;;;5.65;3.55;;;;;;;41.65;19.04;97800.03;1763345;81;21396;-73
2021/07/06 11:28:24;;;;;;;3.47;3.17;;;;;;;40.68;20.67;97800.94;1764251;80;20955;-74
2021/07/06 11:30:48;;;;;;;4.00;3.35;;;;;;;39.76;21.47;97810.91;1696751;84;20970;-75
2021/07/06 11:33:25;;;;;;;5.60;3.55;;;;;;;39.19;22.10;97796.66;1759909;81;21400;-76
2021/07/06 11:36:04;;;;;;;4.80;3.80;;;;;;;37.44;24.63;97804.09;1754052;81;21317;-75
2021/07/06 11:38:40;;;;;;;5.22;3.72;;;;;;;35.65;26.65;97794.21;1752880;81;21050;-73
2021/07/06 11:41:07;;;;;;;4.55;3.80;;;;;;;34.87;28.23;97803.04;1763548;81;21352;-74
2021/07/06 11:43:33;;;;;;;5.75;3.75;;;;;;;36.27;26.00;97789.50;1763872;81;20971;-74
2021/07/06 11:46:10;;;;;;;5.58;4.00;;;;;;;36.84;25.12;97790.28;1763633;81;21290;-75
2021/07/06 11:48:38;;;;;;;4.05;3.65;;;;;;;37.91;23.78;97784.60;1742007;81;21019;-74
2021/07/06 11:51:10;;;;;;;5.83;4.15;;;;;;;38.59;23.41;97778.97;1763589;81;21074;-74
2021/07/06 11:53:41;;;;;;;5.65;3.95;;;;;;;39.26;22.96;97777.12;1763405;81;20967;-74
2021/07/06 11:56:10;;;;;;;4.42;3.60;;;;;;;40.11;22.25;97773.52;1763658;81;21285;-75
2021/07/06 11:58:36;;;;;;;6.90;3.42;;;;;;;39.32;22.06;97776.63;1763492;81;21466;-75
2021/07/06 12:01:10;;;;;;;5.03;4.55;;;;;;;40.53;21.37;97781.85;1763784;81;26332;-74
2021/07/06 12:03:37;;;;;;;5.17;3.37;;;;;;;40.18;21.59;97778.04;1763105;81;20959;-74
2021/07/06 12:06:14;;;;;;;6.20;3.53;;;;;;;40.21;21.63;97775.00;1698228;84;21131;-75
2021/07/06 12:08:51;;;;;;;3.83;3.52;;;;;;;41.32;20.24;97768.40;1698392;84;20927;-76
2021/07/06 12:11:20;;;;;;;3.62;3.33;;;;;;;41.08;19.80;97756.36;1697883;84;21295;-74
2021/07/06 12:13:49;;;;;;;5.95;3.27;;;;;;;40.13;21.03;97760.26;1697623;84;20982;-75
2021/07/06 12:16:26;;;;;;;4.65;3.47;;;;;;;40.55;20.95;97750.13;1697887;84;20982;-75
2021/07/06 12:19:02;;;;;;;9.63;3.95;;;;;;;41.09;20.48;97751.59;1697618;84;21009;-74
2021/07/06 12:21:34;;;;;;;5.22;3.58;;;;;;;42.40;19.30;97755.77;1698329;84;20927;-74
2021/07/06 12:24:15;;;;;;;3.87;3.45;;;;;;;42.76;18.92;97750.84;1697828;84;21850;-74
2021/07/06 12:26:48;;;;;;;3.80;3.50;;;;;;;42.75;18.68;97750.71;1698053;84;21017;-74
2021/07/06 12:29:29;;;;;;;3.98;3.27;;;;;;;42.13;18.09;97745.61;1696991;84;21026;-76
2021/07/06 12:31:55;;;;;;;5.90;3.62;;;;;;;40.59;20.52;97743.00;1698021;84;20979;-75
2021/07/06 12:34:38;;;;;;;4.30;3.60;;;;;;;41.29;19.91;97747.30;1698749;84;21204;-76